Terminal Aerodrome Forecast
Issued by NWS

Home | Current Version | Previous Version | Text Only | Print | Product List | Glossary On
Versions: 1 2 3 4 5 6 7 8 9 10 11 12 13 14 15 16 17
000
FTUS44 KJAN 010500
TAFHKS
TAF
KHKS 010532Z 0106/0206 13008KT P6SM SCT100
     FM010800 12005KT P6SM BKN025 OVC110
     FM011100 11004KT P6SM OVC015
     FM011300 12005KT 4SM BR OVC007
     FM011700 09005KT 4SM -RA BR OVC007=

USA.gov is the U.S. government's official web portal to all federal, state and local government web resources and services.